Time,TemperatureF,DewpointF,PressureIn,WindDirection,WindDirectionDegrees,WindSpeedMPH,WindSpeedGustMPH,Humidity,HourlyPrecipIn,Conditions,Clouds,dailyrainin,SoftwareType,DateUTC
2013-04-02 00:00:00,69.0,63.0,29.93,West,264,4.0,5.0,82,0.00,,,0.00,Meteo,2013-04-02 04:00:00,
2013-04-02 00:03:00,69.0,63.0,29.93,West,266,2.0,3.0,82,0.00,,,0.00,Meteo,2013-04-02 04:03:00,
2013-04-02 00:08:00,69.0,64.0,29.93,WSW,249,2.0,3.0,83,0.00,,,0.00,Meteo,2013-04-02 04:08:00,
2013-04-02 00:13:00,69.0,64.0,29.93,WSW,257,2.0,2.0,83,0.00,,,0.00,Meteo,2013-04-02 04:13:00,
2013-04-02 00:18:00,68.0,63.0,29.93,WSW,246,2.0,5.0,83,0.00,,,0.00,Meteo,2013-04-02 04:18:00,
2013-04-02 00:23:00,68.0,63.0,29.93,WSW,252,2.0,4.0,83,0.00,,,0.00,Meteo,2013-04-02 04:23:00,
2013-04-02 00:27:00,68.0,63.0,29.93,West,266,5.0,7.0,83,0.00,,,0.00,Meteo,2013-04-02 04:27:00,
2013-04-02 00:33:00,68.0,62.0,29.93,West,265,3.0,7.0,82,0.00,,,0.00,Meteo,2013-04-02 04:33:00,
2013-04-02 00:37:00,68.0,62.0,29.93,West,259,2.0,3.0,82,0.00,,,0.00,Meteo,2013-04-02 04:37:00,
2013-04-02 00:42:00,68.0,63.0,29.93,WSW,254,3.0,5.0,83,0.00,,,0.00,Meteo,2013-04-02 04:42:00,
2013-04-02 00:48:00,68.0,63.0,29.93,WSW,250,3.0,5.0,83,0.00,,,0.00,Meteo,2013-04-02 04:48:00,
2013-04-02 00:53:00,68.0,63.0,29.93,West,261,2.0,4.0,83,0.00,,,0.00,Meteo,2013-04-02 04:53:00,
2013-04-02 00:58:00,68.0,63.0,29.93,WSW,258,1.0,5.0,83,0.00,,,0.00,Meteo,2013-04-02 04:58:00,
2013-04-02 01:03:00,68.0,63.0,29.93,West,278,2.0,3.0,84,0.00,,,0.00,Meteo,2013-04-02 05:03:00,
2013-04-02 01:08:00,68.0,63.0,29.93,West,275,2.0,3.0,84,0.00,,,0.00,Meteo,2013-04-02 05:08:00,
2013-04-02 01:13:00,68.0,63.0,29.93,West,260,2.0,3.0,85,0.00,,,0.00,Meteo,2013-04-02 05:13:00,
2013-04-02 01:19:00,67.0,62.0,29.93,West,264,3.0,5.0,85,0.00,,,0.00,Meteo,2013-04-02 05:19:00,
2013-04-02 01:24:00,67.0,63.0,29.93,West,276,1.0,3.0,86,0.00,,,0.00,Meteo,2013-04-02 05:24:00,
2013-04-02 01:29:00,67.0,63.0,29.93,West,281,1.0,3.0,86,0.00,,,0.00,Meteo,2013-04-02 05:29:00,
2013-04-02 01:34:00,67.0,63.0,29.93,WNW,282,2.0,3.0,87,0.00,,,0.00,Meteo,2013-04-02 05:34:00,
2013-04-02 01:39:00,67.0,63.0,29.93,West,277,2.0,4.0,87,0.00,,,0.00,Meteo,2013-04-02 05:39:00,
2013-04-02 01:44:00,67.0,63.0,29.93,West,278,0.0,1.0,88,0.00,,,0.00,Meteo,2013-04-02 05:44:00,
2013-04-02 01:49:00,66.0,62.0,29.93,West,276,1.0,2.0,88,0.00,,,0.00,Meteo,2013-04-02 05:49:00,
2013-04-02 01:54:00,66.0,62.0,29.93,West,275,0.0,1.0,88,0.00,,,0.00,Meteo,2013-04-02 05:54:00,
2013-04-02 01:59:00,66.0,63.0,29.93,WNW,294,2.0,5.0,89,0.00,,,0.00,Meteo,2013-04-02 05:59:00,
2013-04-02 02:05:00,66.0,63.0,29.93,West,278,2.0,3.0,90,0.00,,,0.00,Meteo,2013-04-02 06:05:00,
2013-04-02 02:11:00,66.0,63.0,29.93,West,268,1.0,3.0,91,0.00,,,0.00,Meteo,2013-04-02 06:11:00,
2013-04-02 02:16:00,66.0,64.0,29.93,West,269,3.0,6.0,92,0.00,,,0.00,Meteo,2013-04-02 06:16:00,
2013-04-02 02:21:00,66.0,64.0,29.93,West,271,3.0,6.0,92,0.00,,,0.00,Meteo,2013-04-02 06:21:00,
2013-04-02 02:27:00,66.0,64.0,29.93,WSW,253,3.0,6.0,92,0.00,,,0.00,Meteo,2013-04-02 06:27:00,
2013-04-02 02:33:00,66.0,64.0,29.93,WSW,254,3.0,7.0,93,0.00,,,0.00,Meteo,2013-04-02 06:33:00,
2013-04-02 02:38:00,66.0,64.0,29.93,West,264,3.0,7.0,93,0.00,,,0.00,Meteo,2013-04-02 06:38:00,
2013-04-02 02:43:00,66.0,64.0,29.93,West,266,3.0,6.0,93,0.00,,,0.00,Meteo,2013-04-02 06:43:00,
2013-04-02 02:48:00,66.0,64.0,29.93,West,278,2.0,3.0,93,0.00,,,0.00,Meteo,2013-04-02 06:48:00,
2013-04-02 02:53:00,66.0,64.0,29.93,West,262,1.0,2.0,93,0.00,,,0.00,Meteo,2013-04-02 06:53:00,
2013-04-02 02:59:00,66.0,64.0,29.93,West,280,2.0,3.0,93,0.00,,,0.00,Meteo,2013-04-02 06:59:00,
2013-04-02 03:05:00,65.0,63.0,29.94,North,0,0.0,0.0,93,0.00,,,0.00,Meteo,2013-04-02 07:05:00,
2013-04-02 03:10:00,65.0,63.0,29.94,West,281,0.0,1.0,93,0.00,,,0.00,Meteo,2013-04-02 07:10:00,
2013-04-02 03:15:00,65.0,63.0,29.94,North,0,0.0,0.0,93,0.00,,,0.00,Meteo,2013-04-02 07:15:00,
2013-04-02 03:21:00,65.0,63.0,29.93,West,278,0.0,1.0,93,0.00,,,0.00,Meteo,2013-04-02 07:21:00,
2013-04-02 03:26:00,64.0,62.0,29.93,North,0,0.0,0.0,93,0.00,,,0.00,Meteo,2013-04-02 07:26:00,
2013-04-02 03:31:00,64.0,62.0,29.93,North,0,0.0,0.0,93,0.00,,,0.00,Meteo,2013-04-02 07:31:00,
2013-04-02 03:36:00,64.0,62.0,29.93,North,0,0.0,0.0,94,0.00,,,0.00,Meteo,2013-04-02 07:36:00,
2013-04-02 03:41:00,64.0,62.0,29.93,North,0,0.0,0.0,94,0.00,,,0.00,Meteo,2013-04-02 07:41:00,
2013-04-02 03:46:00,63.0,61.0,29.93,North,0,0.0,0.0,94,0.00,,,0.00,Meteo,2013-04-02 07:46:00,
2013-04-02 03:52:00,63.0,61.0,29.93,North,0,0.0,0.0,94,0.00,,,0.00,Meteo,2013-04-02 07:52:00,
2013-04-02 03:57:00,63.0,61.0,29.93,North,0,0.0,0.0,94,0.00,,,0.00,Meteo,2013-04-02 07:57:00,
2013-04-02 04:02:00,62.0,60.0,29.93,West,279,0.0,2.0,94,0.00,,,0.00,Meteo,2013-04-02 08:02:00,
2013-04-02 04:07:00,62.0,60.0,29.93,West,280,1.0,2.0,94,0.00,,,0.00,Meteo,2013-04-02 08:07:00,
2013-04-02 04:12:00,62.0,61.0,29.93,North,0,0.0,0.0,95,0.00,,,0.00,Meteo,2013-04-02 08:12:00,
2013-04-02 04:17:00,62.0,61.0,29.93,West,280,1.0,2.0,95,0.00,,,0.00,Meteo,2013-04-02 08:17:00,
2013-04-02 04:23:00,62.0,61.0,29.93,West,280,1.0,2.0,96,0.00,,,0.00,Meteo,2013-04-02 08:23:00,
2013-04-02 04:28:00,62.0,61.0,29.93,West,279,0.0,1.0,96,0.00,,,0.00,Meteo,2013-04-02 08:28:00,
2013-04-02 04:34:00,62.0,61.0,29.94,North,0,0.0,0.0,96,0.00,,,0.00,Meteo,2013-04-02 08:34:00,
2013-04-02 04:39:00,62.0,61.0,29.94,North,0,0.0,0.0,96,0.00,,,0.00,Meteo,2013-04-02 08:39:00,
2013-04-02 04:44:00,62.0,61.0,29.94,West,280,1.0,2.0,96,0.00,,,0.00,Meteo,2013-04-02 08:44:00,
2013-04-02 04:49:00,62.0,61.0,29.94,West,280,2.0,2.0,97,0.00,,,0.00,Meteo,2013-04-02 08:49:00,
2013-04-02 04:54:00,62.0,61.0,29.94,North,0,0.0,0.0,97,0.00,,,0.00,Meteo,2013-04-02 08:54:00,
2013-04-02 04:59:00,62.0,61.0,29.94,West,280,1.0,2.0,97,0.00,,,0.00,Meteo,2013-04-02 08:59:00,
2013-04-02 05:04:00,62.0,61.0,29.94,West,281,1.0,2.0,97,0.00,,,0.00,Meteo,2013-04-02 09:04:00,
2013-04-02 05:09:00,62.0,61.0,29.94,West,274,1.0,2.0,97,0.00,,,0.00,Meteo,2013-04-02 09:09:00,
2013-04-02 05:14:00,62.0,61.0,29.94,North,0,0.0,0.0,97,0.00,,,0.00,Meteo,2013-04-02 09:14:00,
2013-04-02 05:19:00,62.0,61.0,29.94,West,274,1.0,2.0,97,0.00,,,0.00,Meteo,2013-04-02 09:19:00,
2013-04-02 05:24:00,62.0,61.0,29.94,West,273,0.0,2.0,97,0.00,,,0.00,Meteo,2013-04-02 09:24:00,
2013-04-02 05:29:00,62.0,61.0,29.94,North,0,0.0,0.0,97,0.00,,,0.00,Meteo,2013-04-02 09:29:00,
2013-04-02 05:34:00,62.0,61.0,29.95,North,0,0.0,0.0,97,0.00,,,0.00,Meteo,2013-04-02 09:34:00,
2013-04-02 05:39:00,61.0,60.0,29.95,North,0,0.0,0.0,97,0.00,,,0.00,Meteo,2013-04-02 09:39:00,
2013-04-02 05:44:00,61.0,60.0,29.95,North,0,0.0,0.0,97,0.00,,,0.00,Meteo,2013-04-02 09:44:00,
2013-04-02 05:49:00,61.0,60.0,29.95,North,0,0.0,0.0,97,0.00,,,0.00,Meteo,2013-04-02 09:49:00,
2013-04-02 05:54:00,61.0,60.0,29.95,West,274,1.0,1.0,97,0.00,,,0.00,Meteo,2013-04-02 09:54:00,
2013-04-02 05:59:00,60.0,59.0,29.95,North,0,0.0,0.0,97,0.00,,,0.00,Meteo,2013-04-02 09:59:00,
2013-04-02 06:04:00,60.0,59.0,29.95,North,0,0.0,0.0,97,0.00,,,0.00,Meteo,2013-04-02 10:04:00,
2013-04-02 06:09:00,60.0,59.0,29.95,North,0,0.0,0.0,97,0.00,,,0.00,Meteo,2013-04-02 10:09:00,
2013-04-02 06:14:00,60.0,59.0,29.95,North,0,0.0,0.0,97,0.00,,,0.00,Meteo,2013-04-02 10:14:00,
2013-04-02 06:19:00,60.0,59.0,29.95,North,0,0.0,0.0,97,0.00,,,0.00,Meteo,2013-04-02 10:19:00,
2013-04-02 06:24:00,60.0,59.0,29.95,North,0,0.0,0.0,98,0.00,,,0.00,Meteo,2013-04-02 10:24:00,
2013-04-02 06:29:00,60.0,59.0,29.95,North,0,0.0,0.0,98,0.00,,,0.00,Meteo,2013-04-02 10:29:00,
2013-04-02 06:34:00,60.0,59.0,29.95,North,0,0.0,0.0,98,0.00,,,0.00,Meteo,2013-04-02 10:34:00,
2013-04-02 06:39:00,60.0,59.0,29.95,North,0,0.0,0.0,98,0.00,,,0.00,Meteo,2013-04-02 10:39:00,
2013-04-02 06:44:00,60.0,59.0,29.95,North,0,0.0,0.0,98,0.00,,,0.00,Meteo,2013-04-02 10:44:00,
2013-04-02 06:49:00,59.0,58.0,29.96,North,0,0.0,0.0,98,0.00,,,0.00,Meteo,2013-04-02 10:49:00,
2013-04-02 06:54:00,59.0,58.0,29.96,North,0,0.0,0.0,98,0.00,,,0.00,Meteo,2013-04-02 10:54:00,
2013-04-02 06:59:00,59.0,58.0,29.96,North,0,0.0,0.0,98,0.00,,,0.00,Meteo,2013-04-02 10:59:00,
2013-04-02 07:04:00,59.0,58.0,29.96,North,0,0.0,0.0,98,0.00,,,0.00,Meteo,2013-04-02 11:04:00,
2013-04-02 07:09:00,59.0,58.0,29.96,North,0,0.0,0.0,98,0.00,,,0.00,Meteo,2013-04-02 11:09:00,
2013-04-02 07:14:00,59.0,58.0,29.96,West,281,0.0,1.0,98,0.00,,,0.00,Meteo,2013-04-02 11:14:00,
2013-04-02 07:19:00,59.0,58.0,29.96,West,279,0.0,1.0,98,0.00,,,0.00,Meteo,2013-04-02 11:19:00,
2013-04-02 07:24:00,59.0,58.0,29.96,North,0,0.0,0.0,98,0.00,,,0.00,Meteo,2013-04-02 11:24:00,
2013-04-02 07:29:00,60.0,59.0,29.96,West,280,0.0,1.0,98,0.00,,,0.00,Meteo,2013-04-02 11:29:00,
2013-04-02 07:34:00,60.0,59.0,29.98,North,0,0.0,0.0,98,0.00,,,0.00,Meteo,2013-04-02 11:34:00,
2013-04-02 07:39:00,60.0,59.0,29.98,North,0,0.0,0.0,98,0.00,,,0.00,Meteo,2013-04-02 11:39:00,
2013-04-02 07:44:00,60.0,59.0,29.98,West,280,1.0,2.0,98,0.00,,,0.00,Meteo,2013-04-02 11:44:00,
2013-04-02 07:49:00,60.0,59.0,29.98,NNW,335,0.0,1.0,98,0.00,,,0.00,Meteo,2013-04-02 11:49:00,
2013-04-02 07:54:00,61.0,60.0,29.98,NW,315,2.0,2.0,98,0.00,,,0.00,Meteo,2013-04-02 11:54:00,
2013-04-02 07:59:00,61.0,60.0,29.98,NW,321,1.0,1.0,98,0.00,,,0.00,Meteo,2013-04-02 11:59:00,
2013-04-02 08:04:00,62.0,61.0,29.98,NW,312,1.0,2.0,98,0.00,,,0.00,Meteo,2013-04-02 12:04:00,
2013-04-02 08:09:00,62.0,61.0,29.98,NNW,344,2.0,4.0,98,0.00,,,0.00,Meteo,2013-04-02 12:09:00,
2013-04-02 08:15:00,62.0,61.0,29.99,North,0,0.0,0.0,98,0.00,,,0.00,Meteo,2013-04-02 12:15:00,
2013-04-02 08:20:00,63.0,62.0,29.99,WNW,292,2.0,5.0,98,0.00,,,0.00,Meteo,2013-04-02 12:20:00,
2013-04-02 08:25:00,63.0,62.0,29.99,NNW,344,2.0,3.0,98,0.00,,,0.00,Meteo,2013-04-02 12:25:00,
2013-04-02 08:30:00,63.0,62.0,29.99,NNW,341,1.0,3.0,98,0.00,,,0.00,Meteo,2013-04-02 12:30:00,
2013-04-02 08:35:00,63.0,62.0,30.00,NNW,339,2.0,3.0,98,0.00,,,0.00,Meteo,2013-04-02 12:35:00,
2013-04-02 08:40:00,64.0,63.0,30.00,NNW,330,3.0,7.0,98,0.00,,,0.00,Meteo,2013-04-02 12:40:00,
2013-04-02 08:45:00,64.0,63.0,30.00,NW,319,3.0,6.0,98,0.00,,,0.00,Meteo,2013-04-02 12:45:00,
2013-04-02 08:50:00,64.0,63.0,30.00,NW,314,0.0,1.0,98,0.00,,,0.00,Meteo,2013-04-02 12:50:00,
2013-04-02 08:55:00,64.0,63.0,30.00,NW,323,1.0,2.0,98,0.00,,,0.00,Meteo,2013-04-02 12:55:00,
2013-04-02 09:00:00,65.0,64.0,30.00,NW,312,2.0,2.0,97,0.00,,,0.00,Meteo,2013-04-02 13:00:00,
2013-04-02 09:05:00,65.0,64.0,30.01,NNW,339,0.0,2.0,96,0.00,,,0.00,Meteo,2013-04-02 13:05:00,
2013-04-02 09:10:00,65.0,63.0,30.01,NNW,347,2.0,3.0,93,0.00,,,0.00,Meteo,2013-04-02 13:10:00,
2013-04-02 09:15:00,66.0,64.0,30.01,NW,322,1.0,3.0,92,0.00,,,0.00,Meteo,2013-04-02 13:15:00,
2013-04-02 09:20:00,66.0,63.0,30.01,NW,317,2.0,4.0,90,0.00,,,0.00,Meteo,2013-04-02 13:20:00,
2013-04-02 09:25:00,66.0,62.0,30.01,North,349,5.0,6.0,88,0.00,,,0.00,Meteo,2013-04-02 13:25:00,
2013-04-02 09:30:00,67.0,62.0,30.01,NNW,348,2.0,3.0,84,0.00,,,0.00,Meteo,2013-04-02 13:30:00,
2013-04-02 09:35:00,68.0,62.0,30.01,NNW,346,3.0,6.0,81,0.00,,,0.00,Meteo,2013-04-02 13:35:00,
2013-04-02 09:40:00,68.0,61.0,30.01,NNW,345,1.0,2.0,79,0.00,,,0.00,Meteo,2013-04-02 13:40:00,
2013-04-02 09:45:00,69.0,61.0,30.01,NNW,334,3.0,4.0,77,0.00,,,0.00,Meteo,2013-04-02 13:45:00,
2013-04-02 09:50:00,69.0,61.0,30.01,North,354,2.0,4.0,76,0.00,,,0.00,Meteo,2013-04-02 13:50:00,
2013-04-02 09:55:00,70.0,61.0,30.01,North,352,1.0,3.0,74,0.00,,,0.00,Meteo,2013-04-02 13:55:00,
2013-04-02 10:00:00,70.0,61.0,30.01,NNE,28,1.0,2.0,72,0.00,,,0.00,Meteo,2013-04-02 14:00:00,
2013-04-02 10:05:00,70.0,60.0,30.01,NNW,348,2.0,3.0,71,0.00,,,0.00,Meteo,2013-04-02 14:05:00,
2013-04-02 10:10:00,71.0,61.0,30.01,NE,36,2.0,3.0,70,0.00,,,0.00,Meteo,2013-04-02 14:10:00,
2013-04-02 10:15:00,71.0,60.0,30.02,NNE,15,3.0,6.0,67,0.00,,,0.00,Meteo,2013-04-02 14:15:00,
2013-04-02 10:20:00,72.0,60.0,30.02,NE,34,3.0,6.0,67,0.00,,,0.00,Meteo,2013-04-02 14:20:00,
2013-04-02 10:25:00,73.0,61.0,30.02,North,4,3.0,7.0,67,0.00,,,0.00,Meteo,2013-04-02 14:25:00,
2013-04-02 10:30:00,73.0,60.0,30.02,North,355,5.0,7.0,63,0.00,,,0.00,Meteo,2013-04-02 14:30:00,
2013-04-02 10:35:00,74.0,61.0,30.02,North,356,4.0,6.0,63,0.00,,,0.00,Meteo,2013-04-02 14:35:00,
2013-04-02 10:40:00,74.0,60.0,30.02,NNW,348,3.0,3.0,61,0.00,,,0.00,Meteo,2013-04-02 14:40:00,
2013-04-02 10:45:00,74.0,59.0,30.02,North,354,1.0,4.0,60,0.00,,,0.00,Meteo,2013-04-02 14:45:00,
2013-04-02 10:50:00,75.0,60.0,30.02,NE,56,1.0,3.0,59,0.00,,,0.00,Meteo,2013-04-02 14:50:00,
2013-04-02 10:55:00,75.0,59.0,30.02,ENE,75,1.0,2.0,58,0.00,,,0.00,Meteo,2013-04-02 14:55:00,
2013-04-02 11:00:00,75.0,59.0,30.02,North,7,5.0,7.0,57,0.00,,,0.00,Meteo,2013-04-02 15:00:00,
2013-04-02 11:05:00,76.0,59.0,30.02,NE,48,3.0,6.0,55,0.00,,,0.00,Meteo,2013-04-02 15:05:00,
2013-04-02 11:10:00,77.0,59.0,30.02,ENE,64,2.0,5.0,54,0.00,,,0.00,Meteo,2013-04-02 15:10:00,
2013-04-02 11:15:00,77.0,60.0,30.02,NNE,25,4.0,7.0,55,0.00,,,0.00,Meteo,2013-04-02 15:15:00,
2013-04-02 11:20:00,78.0,60.0,30.02,North,351,6.0,9.0,54,0.00,,,0.00,Meteo,2013-04-02 15:20:00,
2013-04-02 11:26:00,78.0,58.0,30.02,North,356,2.0,6.0,51,0.00,,,0.00,Meteo,2013-04-02 15:26:00,
2013-04-02 11:31:00,78.0,60.0,30.02,ENE,62,2.0,5.0,53,0.00,,,0.00,Meteo,2013-04-02 15:31:00,
2013-04-02 11:36:00,79.0,59.0,30.02,NNE,14,0.0,1.0,51,0.00,,,0.00,Meteo,2013-04-02 15:36:00,
2013-04-02 11:41:00,79.0,59.0,30.02,NNE,23,3.0,7.0,50,0.00,,,0.00,Meteo,2013-04-02 15:41:00,
2013-04-02 11:46:00,80.0,59.0,30.02,NNE,31,1.0,3.0,49,0.00,,,0.00,Meteo,2013-04-02 15:46:00,
2013-04-02 11:51:00,80.0,59.0,30.02,North,352,3.0,6.0,48,0.00,,,0.00,Meteo,2013-04-02 15:51:00,
2013-04-02 11:56:00,80.0,57.0,30.02,North,1,3.0,5.0,46,0.00,,,0.00,Meteo,2013-04-02 15:56:00,
2013-04-02 12:01:00,80.0,59.0,30.02,North,354,2.0,3.0,48,0.00,,,0.00,Meteo,2013-04-02 16:01:00,
2013-04-02 12:06:00,80.0,59.0,30.02,NNW,344,4.0,5.0,48,0.00,,,0.00,Meteo,2013-04-02 16:06:00,
2013-04-02 12:11:00,80.0,57.0,30.02,North,1,6.0,7.0,46,0.00,,,0.00,Meteo,2013-04-02 16:11:00,
2013-04-02 12:16:00,80.0,57.0,30.02,North,356,6.0,8.0,45,0.00,,,0.00,Meteo,2013-04-02 16:16:00,
2013-04-02 12:21:00,80.0,57.0,30.02,North,357,1.0,3.0,46,0.00,,,0.00,Meteo,2013-04-02 16:21:00,
2013-04-02 12:26:00,81.0,56.0,30.02,NNW,346,2.0,6.0,43,0.00,,,0.00,Meteo,2013-04-02 16:26:00,
2013-04-02 12:31:00,81.0,58.0,30.01,North,354,6.0,10.0,45,0.00,,,0.00,Meteo,2013-04-02 16:31:00,
2013-04-02 12:36:00,82.0,57.0,30.01,NNE,32,2.0,3.0,42,0.00,,,0.00,Meteo,2013-04-02 16:36:00,
2013-04-02 12:41:00,82.0,57.0,30.01,North,354,6.0,9.0,42,0.00,,,0.00,Meteo,2013-04-02 16:41:00,
2013-04-02 12:47:00,82.0,58.0,30.01,North,2,2.0,4.0,44,0.00,,,0.00,Meteo,2013-04-02 16:47:00,
2013-04-02 12:53:00,82.0,58.0,30.01,NNE,33,0.0,1.0,44,0.00,,,0.00,Meteo,2013-04-02 16:53:00,
2013-04-02 12:58:00,82.0,55.0,30.01,NNW,348,7.0,11.0,40,0.00,,,0.00,Meteo,2013-04-02 16:58:00,
2013-04-02 13:03:00,81.0,57.0,30.01,NNW,335,1.0,2.0,44,0.00,,,0.00,Meteo,2013-04-02 17:03:00,
2013-04-02 13:08:00,81.0,56.0,30.01,WNW,283,2.0,3.0,42,0.00,,,0.00,Meteo,2013-04-02 17:08:00,
2013-04-02 13:13:00,82.0,56.0,30.01,North,354,5.0,7.0,41,0.00,,,0.00,Meteo,2013-04-02 17:13:00,
2013-04-02 13:18:00,81.0,57.0,30.01,North,360,2.0,6.0,44,0.00,,,0.00,Meteo,2013-04-02 17:18:00,
2013-04-02 13:23:00,80.0,56.0,30.01,NNE,29,2.0,6.0,43,0.00,,,0.00,Meteo,2013-04-02 17:23:00,
2013-04-02 13:28:00,81.0,56.0,30.01,North,1,6.0,9.0,43,0.00,,,0.00,Meteo,2013-04-02 17:28:00,
2013-04-02 13:33:00,81.0,55.0,30.00,NNW,339,5.0,8.0,41,0.00,,,0.00,Meteo,2013-04-02 17:33:00,
2013-04-02 13:38:00,82.0,55.0,30.00,NNE,16,2.0,4.0,40,0.00,,,0.00,Meteo,2013-04-02 17:38:00,
2013-04-02 13:44:00,83.0,54.0,30.00,NNE,20,3.0,6.0,37,0.00,,,0.00,Meteo,2013-04-02 17:44:00,
2013-04-02 13:49:00,84.0,56.0,30.00,North,3,4.0,6.0,38,0.00,,,0.00,Meteo,2013-04-02 17:49:00,
2013-04-02 13:54:00,84.0,55.0,30.00,NE,42,2.0,7.0,37,0.00,,,0.00,Meteo,2013-04-02 17:54:00,
2013-04-02 14:00:00,84.0,56.0,29.99,NW,310,1.0,3.0,38,0.00,,,0.00,Meteo,2013-04-02 18:00:00,
2013-04-02 14:05:00,83.0,57.0,29.99,NNE,31,0.0,5.0,41,0.00,,,0.00,Meteo,2013-04-02 18:05:00,
2013-04-02 14:10:00,84.0,55.0,29.99,ENE,69,2.0,4.0,37,0.00,,,0.00,Meteo,2013-04-02 18:10:00,
2013-04-02 14:15:00,85.0,55.0,29.99,East,88,1.0,3.0,36,0.00,,,0.00,Meteo,2013-04-02 18:15:00,
2013-04-02 14:20:00,86.0,55.0,29.99,North,9,4.0,6.0,35,0.00,,,0.00,Meteo,2013-04-02 18:20:00,
2013-04-02 14:25:00,86.0,55.0,29.99,ENE,58,2.0,4.0,35,0.00,,,0.00,Meteo,2013-04-02 18:25:00,
2013-04-02 14:30:00,85.0,54.0,29.98,NE,52,2.0,7.0,34,0.00,,,0.00,Meteo,2013-04-02 18:30:00,
2013-04-02 14:35:00,86.0,54.0,29.98,NE,46,3.0,6.0,34,0.00,,,0.00,Meteo,2013-04-02 18:35:00,
2013-04-02 14:40:00,86.0,52.0,29.98,NE,52,0.0,1.0,31,0.00,,,0.00,Meteo,2013-04-02 18:40:00,
2013-04-02 14:45:00,85.0,53.0,29.98,ESE,111,1.0,2.0,33,0.00,,,0.00,Meteo,2013-04-02 18:45:00,
2013-04-02 14:50:00,85.0,53.0,29.98,ENE,57,1.0,2.0,33,0.00,,,0.00,Meteo,2013-04-02 18:50:00,
2013-04-02 14:55:00,85.0,53.0,29.98,North,357,3.0,6.0,33,0.00,,,0.00,Meteo,2013-04-02 18:55:00,
2013-04-02 15:00:00,85.0,54.0,29.98,ENE,67,4.0,8.0,35,0.00,,,0.00,Meteo,2013-04-02 19:00:00,
2013-04-02 15:06:00,85.0,54.0,29.96,NE,53,4.0,8.0,35,0.00,,,0.00,Meteo,2013-04-02 19:06:00,
2013-04-02 15:11:00,85.0,54.0,29.96,NNE,18,4.0,6.0,34,0.00,,,0.00,Meteo,2013-04-02 19:11:00,
2013-04-02 15:16:00,85.0,54.0,29.96,North,3,2.0,5.0,34,0.00,,,0.00,Meteo,2013-04-02 19:16:00,
2013-04-02 15:21:00,84.0,54.0,29.96,NE,38,2.0,5.0,36,0.00,,,0.00,Meteo,2013-04-02 19:21:00,
2013-04-02 15:26:00,85.0,54.0,29.96,NNE,28,1.0,2.0,35,0.00,,,0.00,Meteo,2013-04-02 19:26:00,
2013-04-02 15:31:00,85.0,53.0,29.96,NNE,32,2.0,3.0,33,0.00,,,0.00,Meteo,2013-04-02 19:31:00,
2013-04-02 15:36:00,86.0,54.0,29.96,ENE,66,3.0,6.0,33,0.00,,,0.00,Meteo,2013-04-02 19:36:00,
2013-04-02 15:41:00,85.0,53.0,29.96,NNE,29,3.0,8.0,33,0.00,,,0.00,Meteo,2013-04-02 19:41:00,
2013-04-02 15:46:00,84.0,52.0,29.96,NNE,13,6.0,10.0,33,0.00,,,0.00,Meteo,2013-04-02 19:46:00,
2013-04-02 15:51:00,83.0,53.0,29.96,NNE,30,3.0,8.0,36,0.00,,,0.00,Meteo,2013-04-02 19:51:00,
2013-04-02 15:56:00,84.0,51.0,29.96,NNE,12,1.0,3.0,32,0.00,,,0.00,Meteo,2013-04-02 19:56:00,
2013-04-02 16:02:00,84.0,52.0,29.96,East,83,4.0,10.0,33,0.00,,,0.00,Meteo,2013-04-02 20:02:00,
2013-04-02 16:07:00,85.0,52.0,29.96,NNE,24,4.0,8.0,32,0.00,,,0.00,Meteo,2013-04-02 20:07:00,
2013-04-02 16:12:00,85.0,51.0,29.96,NNE,31,3.0,7.0,31,0.00,,,0.00,Meteo,2013-04-02 20:12:00,
2013-04-02 16:17:00,84.0,49.0,29.96,NNE,18,3.0,7.0,30,0.00,,,0.00,Meteo,2013-04-02 20:17:00,
2013-04-02 16:23:00,84.0,48.0,29.96,NNE,31,3.0,7.0,29,0.00,,,0.00,Meteo,2013-04-02 20:23:00,
2013-04-02 16:28:00,84.0,49.0,29.96,East,92,1.0,3.0,30,0.00,,,0.00,Meteo,2013-04-02 20:28:00,
2013-04-02 16:33:00,84.0,49.0,29.96,ENE,74,3.0,7.0,30,0.00,,,0.00,Meteo,2013-04-02 20:33:00,
2013-04-02 16:38:00,84.0,49.0,29.96,ENE,68,3.0,6.0,30,0.00,,,0.00,Meteo,2013-04-02 20:38:00,
2013-04-02 16:43:00,84.0,49.0,29.96,East,79,1.0,4.0,30,0.00,,,0.00,Meteo,2013-04-02 20:43:00,
2013-04-02 16:48:00,84.0,49.0,29.96,ENE,77,4.0,10.0,30,0.00,,,0.00,Meteo,2013-04-02 20:48:00,
2013-04-02 16:53:00,84.0,49.0,29.96,NE,48,2.0,3.0,30,0.00,,,0.00,Meteo,2013-04-02 20:53:00,
2013-04-02 16:59:00,84.0,51.0,29.96,ENE,60,3.0,7.0,32,0.00,,,0.00,Meteo,2013-04-02 20:59:00,
2013-04-02 17:04:00,84.0,50.0,29.96,NE,50,2.0,6.0,31,0.00,,,0.00,Meteo,2013-04-02 21:04:00,
2013-04-02 17:09:00,83.0,48.0,29.96,ENE,68,2.0,5.0,30,0.00,,,0.00,Meteo,2013-04-02 21:09:00,
2013-04-02 17:14:00,83.0,48.0,29.96,ENE,68,3.0,5.0,30,0.00,,,0.00,Meteo,2013-04-02 21:14:00,
2013-04-02 17:19:00,83.0,51.0,29.96,SE,135,0.0,2.0,33,0.00,,,0.00,Meteo,2013-04-02 21:19:00,
2013-04-02 17:24:00,83.0,51.0,29.96,NE,49,2.0,4.0,33,0.00,,,0.00,Meteo,2013-04-02 21:24:00,
2013-04-02 17:29:00,82.0,50.0,29.96,NNE,25,3.0,7.0,33,0.00,,,0.00,Meteo,2013-04-02 21:29:00,
2013-04-02 17:34:00,82.0,52.0,29.96,NE,44,3.0,7.0,35,0.00,,,0.00,Meteo,2013-04-02 21:34:00,
2013-04-02 17:39:00,82.0,52.0,29.96,NE,42,3.0,7.0,35,0.00,,,0.00,Meteo,2013-04-02 21:39:00,
2013-04-02 17:44:00,81.0,52.0,29.96,East,89,2.0,6.0,36,0.00,,,0.00,Meteo,2013-04-02 21:44:00,
2013-04-02 17:49:00,81.0,52.0,29.96,ENE,68,3.0,8.0,37,0.00,,,0.00,Meteo,2013-04-02 21:49:00,
2013-04-02 17:54:00,81.0,52.0,29.96,East,79,1.0,3.0,37,0.00,,,0.00,Meteo,2013-04-02 21:54:00,
2013-04-02 18:00:00,80.0,51.0,29.97,ENE,72,1.0,4.0,36,0.00,,,0.00,Meteo,2013-04-02 22:00:00,
2013-04-02 18:05:00,80.0,51.0,29.97,ENE,65,4.0,11.0,37,0.00,,,0.00,Meteo,2013-04-02 22:05:00,
2013-04-02 18:10:00,80.0,51.0,29.97,ENE,74,2.0,6.0,37,0.00,,,0.00,Meteo,2013-04-02 22:10:00,
2013-04-02 18:15:00,79.0,51.0,29.97,ESE,114,3.0,6.0,38,0.00,,,0.00,Meteo,2013-04-02 22:15:00,
2013-04-02 18:20:00,79.0,51.0,29.97,ENE,67,2.0,3.0,38,0.00,,,0.00,Meteo,2013-04-02 22:20:00,
2013-04-02 18:25:00,79.0,51.0,29.97,NE,40,4.0,7.0,38,0.00,,,0.00,Meteo,2013-04-02 22:25:00,
2013-04-02 18:30:00,78.0,51.0,29.97,NE,49,2.0,5.0,39,0.00,,,0.00,Meteo,2013-04-02 22:30:00,
2013-04-02 18:35:00,78.0,50.0,29.97,ENE,71,2.0,7.0,38,0.00,,,0.00,Meteo,2013-04-02 22:35:00,
2013-04-02 18:40:00,77.0,51.0,29.97,NNE,31,0.0,1.0,40,0.00,,,0.00,Meteo,2013-04-02 22:40:00,
2013-04-02 18:46:00,77.0,49.0,29.97,NE,45,4.0,10.0,38,0.00,,,0.00,Meteo,2013-04-02 22:46:00,
2013-04-02 18:51:00,76.0,50.0,29.97,ENE,77,1.0,3.0,40,0.00,,,0.00,Meteo,2013-04-02 22:51:00,
2013-04-02 18:56:00,76.0,50.0,29.97,East,101,2.0,6.0,40,0.00,,,0.00,Meteo,2013-04-02 22:56:00,
2013-04-02 19:01:00,76.0,51.0,29.98,ENE,72,3.0,6.0,41,0.00,,,0.00,Meteo,2013-04-02 23:01:00,
2013-04-02 19:07:00,75.0,50.0,29.98,ENE,66,3.0,7.0,42,0.00,,,0.00,Meteo,2013-04-02 23:07:00,
2013-04-02 19:13:00,75.0,51.0,29.98,East,82,3.0,7.0,43,0.00,,,0.00,Meteo,2013-04-02 23:13:00,
2013-04-02 19:19:00,74.0,51.0,29.98,East,99,1.0,6.0,44,0.00,,,0.00,Meteo,2013-04-02 23:19:00,
2013-04-02 19:24:00,74.0,51.0,29.98,East,82,0.0,1.0,45,0.00,,,0.00,Meteo,2013-04-02 23:24:00,
2013-04-02 19:29:00,73.0,51.0,29.98,ENE,78,2.0,4.0,46,0.00,,,0.00,Meteo,2013-04-02 23:29:00,
2013-04-02 19:34:00,73.0,52.0,29.98,NE,50,2.0,6.0,47,0.00,,,0.00,Meteo,2013-04-02 23:34:00,
2013-04-02 19:39:00,72.0,51.0,29.98,NNE,13,1.0,4.0,48,0.00,,,0.00,Meteo,2013-04-02 23:39:00,
2013-04-02 19:44:00,72.0,51.0,29.98,ENE,73,1.0,2.0,48,0.00,,,0.00,Meteo,2013-04-02 23:44:00,
2013-04-02 19:49:00,72.0,52.0,29.98,East,80,2.0,5.0,49,0.00,,,0.00,Meteo,2013-04-02 23:49:00,
2013-04-02 19:54:00,71.0,51.0,29.98,ENE,69,2.0,5.0,49,0.00,,,0.00,Meteo,2013-04-02 23:54:00,
2013-04-02 19:59:00,71.0,52.0,29.98,North,0,0.0,0.0,51,0.00,,,0.00,Meteo,2013-04-02 23:59:00,
2013-04-02 20:05:00,70.0,52.0,29.98,ENE,71,2.0,5.0,52,0.00,,,0.00,Meteo,2013-04-03 00:05:00,
2013-04-02 20:10:00,70.0,53.0,29.98,ENE,72,0.0,2.0,54,0.00,,,0.00,Meteo,2013-04-03 00:10:00,
2013-04-02 20:16:00,70.0,54.0,29.99,North,356,1.0,2.0,56,0.00,,,0.00,Meteo,2013-04-03 00:16:00,
2013-04-02 20:21:00,69.0,54.0,29.99,ENE,77,1.0,5.0,58,0.00,,,0.00,Meteo,2013-04-03 00:21:00,
2013-04-02 20:26:00,69.0,54.0,29.99,ENE,66,2.0,3.0,58,0.00,,,0.00,Meteo,2013-04-03 00:26:00,
2013-04-02 20:32:00,69.0,55.0,29.99,NE,43,1.0,3.0,60,0.00,,,0.00,Meteo,2013-04-03 00:32:00,
2013-04-02 20:38:00,68.0,54.0,29.99,ENE,78,2.0,3.0,61,0.00,,,0.00,Meteo,2013-04-03 00:38:00,
2013-04-02 20:44:00,68.0,55.0,29.99,ENE,73,0.0,1.0,62,0.00,,,0.00,Meteo,2013-04-03 00:44:00,
2013-04-02 20:50:00,68.0,55.0,29.99,ENE,77,1.0,2.0,62,0.00,,,0.00,Meteo,2013-04-03 00:50:00,
2013-04-02 20:55:00,68.0,55.0,29.99,North,0,0.0,0.0,63,0.00,,,0.00,Meteo,2013-04-03 00:55:00,
2013-04-02 21:00:00,68.0,55.0,29.99,ENE,64,2.0,7.0,64,0.00,,,0.00,Meteo,2013-04-03 01:00:00,
2013-04-02 21:05:00,67.0,55.0,29.99,East,97,0.0,1.0,65,0.00,,,0.00,Meteo,2013-04-03 01:05:00,
2013-04-02 21:10:00,67.0,55.0,29.99,NE,51,1.0,5.0,66,0.00,,,0.00,Meteo,2013-04-03 01:10:00,
2013-04-02 21:15:00,67.0,55.0,29.99,North,0,0.0,0.0,66,0.00,,,0.00,Meteo,2013-04-03 01:15:00,
2013-04-02 21:20:00,66.0,55.0,30.00,North,0,0.0,0.0,67,0.00,,,0.00,Meteo,2013-04-03 01:20:00,
2013-04-02 21:25:00,66.0,55.0,30.00,East,84,1.0,2.0,68,0.00,,,0.00,Meteo,2013-04-03 01:25:00,
2013-04-02 21:30:00,66.0,56.0,30.00,North,0,0.0,0.0,69,0.00,,,0.00,Meteo,2013-04-03 01:30:00,
2013-04-02 21:35:00,66.0,56.0,30.00,NE,51,2.0,6.0,70,0.00,,,0.00,Meteo,2013-04-03 01:35:00,
2013-04-02 21:40:00,65.0,55.0,30.00,NE,40,1.0,3.0,71,0.00,,,0.00,Meteo,2013-04-03 01:40:00,
2013-04-02 21:45:00,65.0,56.0,30.01,East,81,1.0,3.0,72,0.00,,,0.00,Meteo,2013-04-03 01:45:00,
2013-04-02 21:50:00,65.0,56.0,30.01,North,0,0.0,0.0,73,0.00,,,0.00,Meteo,2013-04-03 01:50:00,
2013-04-02 21:55:00,65.0,57.0,30.01,ENE,61,0.0,3.0,74,0.00,,,0.00,Meteo,2013-04-03 01:55:00,
2013-04-02 22:00:00,65.0,57.0,30.01,ENE,67,0.0,2.0,75,0.00,,,0.00,Meteo,2013-04-03 02:00:00,
2013-04-02 22:05:00,65.0,57.0,30.01,ENE,60,1.0,2.0,76,0.00,,,0.00,Meteo,2013-04-03 02:05:00,
2013-04-02 22:10:00,65.0,58.0,30.01,East,86,0.0,1.0,77,0.00,,,0.00,Meteo,2013-04-03 02:10:00,
2013-04-02 22:15:00,65.0,58.0,30.01,ENE,66,0.0,2.0,77,0.00,,,0.00,Meteo,2013-04-03 02:15:00,
2013-04-02 22:20:00,64.0,57.0,30.01,ENE,70,0.0,1.0,78,0.00,,,0.00,Meteo,2013-04-03 02:20:00,
2013-04-02 22:25:00,64.0,57.0,30.01,ENE,70,0.0,1.0,79,0.00,,,0.00,Meteo,2013-04-03 02:25:00,
2013-04-02 22:30:00,64.0,57.0,30.01,ENE,62,0.0,1.0,79,0.00,,,0.00,Meteo,2013-04-03 02:30:00,
2013-04-02 22:36:00,64.0,58.0,30.01,North,0,0.0,0.0,81,0.00,,,0.00,Meteo,2013-04-03 02:36:00,
2013-04-02 22:41:00,63.0,57.0,30.01,North,0,0.0,0.0,81,0.00,,,0.00,Meteo,2013-04-03 02:41:00,
2013-04-02 22:47:00,63.0,57.0,30.01,North,0,0.0,0.0,82,0.00,,,0.00,Meteo,2013-04-03 02:47:00,
2013-04-02 22:52:00,63.0,58.0,30.01,North,0,0.0,0.0,83,0.00,,,0.00,Meteo,2013-04-03 02:52:00,
2013-04-02 22:57:00,63.0,58.0,30.01,ENE,68,0.0,1.0,83,0.00,,,0.00,Meteo,2013-04-03 02:57:00,
2013-04-02 23:03:00,63.0,58.0,30.01,North,0,0.0,0.0,84,0.00,,,0.00,Meteo,2013-04-03 03:03:00,
2013-04-02 23:08:00,62.0,57.0,30.01,North,0,0.0,0.0,85,0.00,,,0.00,Meteo,2013-04-03 03:08:00,
2013-04-02 23:13:00,62.0,57.0,30.01,North,0,0.0,0.0,85,0.00,,,0.00,Meteo,2013-04-03 03:13:00,
2013-04-02 23:18:00,62.0,58.0,30.01,East,80,0.0,1.0,86,0.00,,,0.00,Meteo,2013-04-03 03:18:00,
2013-04-02 23:23:00,62.0,58.0,30.01,ENE,64,0.0,1.0,87,0.00,,,0.00,Meteo,2013-04-03 03:23:00,
2013-04-02 23:29:00,62.0,58.0,30.01,ENE,63,0.0,1.0,87,0.00,,,0.00,Meteo,2013-04-03 03:29:00,
2013-04-02 23:34:00,62.0,58.0,30.02,North,0,0.0,0.0,88,0.00,,,0.00,Meteo,2013-04-03 03:34:00,
2013-04-02 23:40:00,62.0,58.0,30.02,North,0,0.0,0.0,88,0.00,,,0.00,Meteo,2013-04-03 03:40:00,
2013-04-02 23:45:00,61.0,57.0,30.02,North,0,0.0,0.0,88,0.00,,,0.00,Meteo,2013-04-03 03:45:00,
2013-04-02 23:50:00,61.0,58.0,30.02,North,0,0.0,0.0,89,0.00,,,0.00,Meteo,2013-04-03 03:50:00,
2013-04-02 23:56:00,61.0,58.0,30.02,North,0,0.0,0.0,89,0.00,,,0.00,Meteo,2013-04-03 03:56:00,